Meteo Giornale » Osservazioni meteo Stati Uniti (USA) » Nashua-Boire Fld

ore: 17:56 - Osservazioni Meteo Nashua-Boire Fld
Lat. 42° 47' N Lon. 71° 31' W Alt. 61 metri s.l.m.

coperto_pioggia

17 °C

Pioggia

Temp. 24 Ore

17 °C

24 °C

Sud

9.3 Km/h

Dew point 16 °C

Umidità 93 %

Visibilità  11 Km

Il sole sorge alle ore 06:11

Il sole tramonta alle ore 19:20

Data e Ora Cielo e Fenomeni T °C DP °C Um. % Pres. hPa Vis. km Vento km/h
Oggi h: 17:56 coperto_pioggia Pioggia 17 16 93 1019 11 S 9.3
Oggi h: 16:56 coperto_pioggia Pioggia Foschia 19 18 93 1018 5 E/SE 9.3
Oggi h: 16:03 coperto_pioggia Pioggia Foschia 19 18 93 1018 6 N 5.5
Oggi h: 15:56 coperto_pioggia Pioggia Foschia 18 18 100 1018 6 N 11.1
Oggi h: 14:56 coperto_pioggia Pioggia 18 18 100 1018 11 N 11.1
Oggi h: 13:56 coperto_pioggia Pioggia 18 17 93 1018 11 N 5.5
Oggi h: 12:56 coperto Coperto 17 17 100 1017 11 NE 9.3
Oggi h: 12:14 coperto Coperto 18 17 93 1018 11 NE 7.4
Oggi h: 11:56 coperto_pioggia Pioggia Foschia 18 17 93 1018 10 N 5.5
Oggi h: 10:56 coperto_pioggia Pioggia Foschia 18 17 93 1018 8 N 5.5
Oggi h: 10:48 coperto_pioggia Pioggia Foschia 18 17 93 1018 8 N 5.5
Oggi h: 10:15 coperto_pioggia Pioggia Foschia 18 17 93 1017 8 N 5.5
Oggi h: 10:03 coperto_pioggia Pioggia Foschia 18 17 93 1017 8 N 5.5
Oggi h: 09:56 foschia Foschia 18 18 100 1017 3 E 7.4
Oggi h: 09:48 foschia Foschia 18 18 100 1017 3 E 7.4
Oggi h: 09:09 coperto_pioggia Pioggia Foschia 18 17 93 1018 3 N 0
Oggi h: 09:00 coperto_pioggia Pioggia 18 17 93 1018 3 N 5.5
Oggi h: 08:56 coperto_pioggia Pioggia Foschia 18 18 100 1018 3 N 5.5
Oggi h: 08:39 coperto_pioggia Pioggia Foschia 18 18 100 1018 5 N 5.5
Oggi h: 08:31 coperto_pioggia Pioggia Foschia 18 18 100 1018 2 N 5.5
Oggi h: 08:25 coperto_pioggia Pioggia Foschia 18 18 100 1018 6 N 0
Oggi h: 08:03 coperto_pioggia Pioggia 18 18 100 1018 11 N 0
Oggi h: 07:56 coperto_pioggia Pioggia Foschia 18 18 100 1018 3 N 0
Oggi h: 07:46 coperto_pioggia Pioggia Foschia 18 18 100 1018 5 N 0
Oggi h: 07:39 coperto_pioggia Pioggia Foschia 18 18 100 1018 8 N 0
Oggi h: 07:02 coperto_pioggia Pioggia Foschia 18 18 100 1018 5 N 0
Oggi h: 06:56 coperto_pioggia Pioggia Foschia 18 18 100 1018 3 N 0
Oggi h: 06:17 coperto_pioggia Pioggia 19 17 88 1017 10 N 5.5
Oggi h: 05:56 coperto_pioggia Pioggia 19 17 88 1017 10 N 7.4
Oggi h: 04:56 coperto Coperto 20 16 77 1017 10 S/SE 7.4
Oggi h: 03:56 coperto Coperto 20 17 82 1017 10 S 7.4
Oggi h: 02:56 coperto Coperto 20 17 82 1017 10 S 7.4
Oggi h: 01:56 coperto Coperto 21 17 77 1017 10 S 7.4
Oggi h: 00:56 coperto Coperto 21 16 73 1018 10 S/SE 9.3
Ieri h: 23:56 sereno Sereno 21 16 73 1018 10 S 9.3
Ieri h: 22:56 poco_nuvoloso Poco Nuvoloso 19 17 88 1018 10 N 0
Ieri h: 21:56 sereno Sereno 19 16 82 1017 10 N 0
Ieri h: 20:56 sereno Sereno 19 16 82 1018 10 N 0
Ieri h: 19:56 sereno Sereno 22 16 68 1017 10 N 0
Ieri h: 18:56 nuvoloso Nuvoloso 24 15 57 1018 10 N 5.5